createdAt,value
2019-03-26T00:01:17.409Z,63.40
2019-03-26T00:04:21.634Z,63.50
2019-03-26T00:07:25.902Z,64.40
2019-03-26T00:10:30.375Z,64.20
2019-03-26T00:13:34.595Z,64.30
2019-03-26T00:16:38.801Z,64.70
2019-03-26T00:19:43.260Z,64.50
2019-03-26T00:22:47.526Z,65.00
2019-03-26T00:25:51.724Z,65.60
2019-03-26T00:28:56.019Z,65.50
2019-03-26T00:32:00.278Z,65.70
2019-03-26T00:35:04.884Z,65.70
2019-03-26T00:38:09.197Z,66.10
2019-03-26T00:41:13.419Z,66.40
2019-03-26T00:44:17.710Z,66.50
2019-03-26T00:47:21.944Z,67.30
2019-03-26T00:50:26.151Z,67.30
2019-03-26T00:53:30.618Z,67.70
2019-03-26T00:56:34.825Z,67.60
2019-03-26T00:59:39.041Z,68.10
2019-03-26T01:02:43.291Z,68.30
2019-03-26T01:05:47.569Z,68.60
2019-03-26T01:08:51.834Z,68.50
2019-03-26T01:11:56.023Z,69.00
2019-03-26T01:15:00.601Z,68.90
2019-03-26T01:18:04.990Z,69.10
2019-03-26T01:21:09.387Z,69.00
2019-03-26T01:24:13.648Z,69.80
2019-03-26T01:27:17.827Z,69.70
2019-03-26T01:30:22.048Z,69.70
2019-03-26T01:33:26.477Z,69.70
2019-03-26T01:36:30.727Z,70.10
2019-03-26T01:39:35.180Z,70.70
2019-03-26T01:42:39.453Z,71.50
2019-03-26T01:45:43.916Z,71.20
2019-03-26T01:48:48.255Z,71.20
2019-03-26T01:51:52.595Z,72.00
2019-03-26T01:54:57.710Z,71.80
2019-03-26T01:58:02.142Z,72.70
2019-03-26T02:01:06.418Z,72.40
2019-03-26T02:04:10.636Z,72.50
2019-03-26T02:07:14.899Z,72.10
2019-03-26T02:10:19.400Z,72.70
2019-03-26T02:13:23.906Z,72.60
2019-03-26T02:16:28.105Z,72.60
2019-03-26T02:19:32.352Z,72.90
2019-03-26T02:22:37.081Z,73.30
2019-03-26T02:25:41.369Z,73.40
2019-03-26T02:28:45.558Z,73.90
2019-03-26T02:31:50.146Z,74.40
2019-03-26T02:34:55.333Z,74.10
2019-03-26T02:37:59.584Z,74.10
2019-03-26T02:41:03.888Z,74.00
2019-03-26T02:44:08.139Z,74.40
2019-03-26T02:47:12.419Z,73.60
2019-03-26T02:50:16.802Z,74.00
2019-03-26T02:53:21.097Z,73.10
2019-03-26T02:56:25.418Z,73.30
2019-03-26T02:59:29.914Z,72.90
2019-03-26T03:02:34.162Z,72.70
2019-03-26T03:05:38.350Z,72.60
2019-03-26T03:08:42.611Z,71.80
2019-03-26T03:11:46.916Z,71.90
2019-03-26T03:14:51.179Z,72.10
2019-03-26T03:17:55.411Z,72.20
2019-03-26T03:20:59.668Z,72.50
2019-03-26T03:24:03.935Z,72.10
2019-03-26T03:27:08.924Z,72.30
2019-03-26T03:30:14.284Z,71.70
2019-03-26T03:33:18.655Z,71.50
2019-03-26T03:36:23.193Z,70.80
2019-03-26T03:39:27.469Z,71.10
2019-03-26T03:42:31.642Z,71.30
2019-03-26T03:45:37.048Z,70.80
2019-03-26T03:48:41.440Z,71.00
2019-03-26T03:51:47.787Z,70.70
2019-03-26T03:54:52.639Z,70.70
2019-03-26T03:58:00.131Z,69.90
2019-03-26T04:01:04.350Z,69.70
2019-03-26T04:04:08.665Z,69.60
2019-03-26T04:07:12.932Z,69.40
2019-03-26T04:10:17.110Z,68.00
2019-03-26T04:13:21.448Z,68.70
2019-03-26T04:16:25.627Z,68.60
2019-03-26T04:19:30.172Z,68.30
2019-03-26T04:22:34.708Z,68.30
2019-03-26T04:25:38.888Z,67.90
2019-03-26T04:28:43.185Z,68.30
2019-03-26T04:31:47.410Z,68.00
2019-03-26T04:34:51.606Z,68.30
2019-03-26T04:37:55.868Z,68.30
2019-03-26T04:41:00.069Z,68.40
2019-03-26T04:44:04.414Z,68.40
2019-03-26T04:47:08.628Z,68.10
2019-03-26T04:50:12.996Z,67.70
2019-03-26T04:53:17.214Z,68.40
2019-03-26T04:56:21.505Z,68.10
2019-03-26T04:59:25.723Z,68.70
2019-03-26T05:02:29.966Z,69.00
2019-03-26T05:05:34.145Z,69.40
2019-03-26T05:08:38.508Z,69.40
2019-03-26T05:11:42.763Z,69.20
2019-03-26T05:14:46.971Z,69.20
2019-03-26T05:17:51.244Z,69.10
2019-03-26T05:20:55.530Z,69.20
2019-03-26T05:23:59.779Z,69.80
2019-03-26T05:27:03.989Z,69.80
2019-03-26T05:30:09.197Z,69.70
2019-03-26T05:33:13.456Z,69.20
2019-03-26T05:36:17.716Z,69.00
2019-03-26T05:39:21.987Z,69.70
2019-03-26T05:42:26.246Z,70.50
2019-03-26T05:45:30.487Z,70.30
2019-03-26T05:48:34.719Z,71.90
2019-03-26T05:51:38.929Z,71.80
2019-03-26T05:54:43.150Z,73.10
2019-03-26T05:57:47.374Z,73.80
2019-03-26T06:00:51.597Z,74.10
2019-03-26T06:03:55.914Z,74.20
2019-03-26T06:07:05.225Z,73.90
2019-03-26T06:10:07.935Z,73.60
2019-03-26T06:13:12.146Z,73.10
2019-03-26T06:16:16.403Z,71.80
2019-03-26T06:19:20.642Z,69.60
2019-03-26T06:22:24.881Z,68.90
2019-03-26T06:25:29.432Z,68.00
2019-03-26T06:28:33.741Z,66.20
2019-03-26T06:31:38.248Z,65.30
2019-03-26T06:34:42.508Z,64.40
2019-03-26T06:37:46.760Z,63.50
2019-03-26T06:40:51.159Z,62.70
2019-03-26T06:43:55.382Z,61.50
2019-03-26T06:46:59.875Z,61.90
2019-03-26T06:50:04.865Z,59.80
2019-03-26T06:53:09.251Z,58.30
2019-03-26T06:56:13.460Z,57.10
2019-03-26T06:59:17.693Z,57.40
2019-03-26T07:02:21.987Z,56.30
2019-03-26T07:05:26.286Z,56.10
2019-03-26T07:08:30.501Z,55.60
2019-03-26T07:11:34.843Z,57.20
2019-03-26T07:14:39.177Z,55.70
2019-03-26T07:17:43.447Z,55.20
2019-03-26T07:20:47.706Z,54.70
2019-03-26T07:23:52.047Z,54.50
2019-03-26T07:26:56.282Z,54.30
2019-03-26T07:30:00.530Z,55.30
2019-03-26T07:33:05.239Z,55.40
2019-03-26T07:36:09.533Z,55.50
2019-03-26T07:39:14.225Z,55.60
2019-03-26T07:42:18.456Z,54.60
2019-03-26T07:45:23.590Z,53.60
2019-03-26T07:48:27.777Z,52.10
2019-03-26T07:51:32.018Z,50.50
2019-03-26T07:54:36.242Z,51.70
2019-03-26T07:57:40.474Z,50.20
2019-03-26T08:00:44.946Z,49.50
2019-03-26T08:03:49.494Z,49.60
2019-03-26T08:06:53.754Z,50.90
2019-03-26T08:09:58.090Z,50.60
2019-03-26T08:13:02.554Z,51.10
2019-03-26T08:16:06.831Z,50.20
2019-03-26T08:19:11.109Z,49.50
2019-03-26T08:22:15.419Z,49.10
2019-03-26T08:25:19.770Z,48.10
2019-03-26T08:28:24.611Z,48.30
2019-03-26T08:31:28.906Z,48.20
2019-03-26T08:34:33.126Z,47.30
2019-03-26T08:37:37.379Z,45.00
2019-03-26T08:40:41.614Z,45.00
2019-03-26T08:43:45.878Z,45.40
2019-03-26T08:46:50.125Z,43.20
2019-03-26T08:49:54.357Z,43.10
2019-03-26T08:52:58.605Z,42.90
2019-03-26T08:56:02.802Z,44.70
2019-03-26T08:59:07.030Z,42.90
2019-03-26T09:02:11.262Z,42.40
2019-03-26T09:05:16.015Z,41.80
2019-03-26T09:08:25.557Z,41.10
2019-03-26T09:11:26.278Z,41.10
2019-03-26T09:14:30.532Z,40.80
2019-03-26T09:17:34.747Z,40.30
2019-03-26T09:20:38.990Z,40.50
2019-03-26T09:23:43.190Z,40.40
2019-03-26T09:26:47.432Z,39.70
2019-03-26T09:29:51.662Z,39.60
2019-03-26T09:32:55.853Z,40.90
2019-03-26T09:36:00.127Z,40.80
2019-03-26T09:39:05.705Z,40.10
2019-03-26T09:42:09.978Z,39.70
2019-03-26T09:45:14.986Z,38.50
2019-03-26T09:48:19.574Z,39.50
2019-03-26T09:51:23.834Z,38.80
2019-03-26T09:54:28.034Z,39.10
2019-03-26T09:57:32.409Z,39.50
2019-03-26T10:00:36.774Z,41.10
2019-03-26T10:03:41.067Z,42.70
2019-03-26T10:06:45.392Z,44.20
2019-03-26T10:09:49.647Z,45.60
2019-03-26T10:12:53.942Z,48.00
2019-03-26T10:15:58.137Z,46.90
2019-03-26T10:19:02.422Z,45.50
2019-03-26T10:22:06.758Z,45.40
2019-03-26T10:25:11.613Z,45.00
2019-03-26T10:28:15.850Z,43.90
2019-03-26T10:31:20.222Z,44.10
2019-03-26T10:34:24.429Z,44.00
2019-03-26T10:37:28.644Z,43.70
2019-03-26T10:40:34.039Z,44.00
2019-03-26T10:43:38.226Z,44.10
2019-03-26T10:46:44.578Z,43.10
2019-03-26T10:49:48.361Z,43.80
2019-03-26T10:52:52.662Z,47.20
2019-03-26T10:55:56.881Z,47.60
2019-03-26T10:59:04.053Z,47.00
2019-03-26T11:02:07.479Z,48.50
2019-03-26T11:05:11.850Z,48.60
2019-03-26T11:08:16.406Z,48.60
2019-03-26T11:11:20.739Z,47.60
2019-03-26T11:14:24.917Z,46.10
2019-03-26T11:17:29.161Z,45.30
2019-03-26T11:20:33.571Z,45.40
2019-03-26T11:23:37.862Z,43.20
2019-03-26T11:26:42.446Z,44.20
2019-03-26T11:29:46.677Z,43.00
2019-03-26T11:32:51.021Z,43.30
2019-03-26T11:35:55.329Z,42.90
2019-03-26T11:38:59.605Z,42.20
2019-03-26T11:42:03.896Z,41.80
2019-03-26T11:45:09.201Z,42.90
2019-03-26T11:48:13.434Z,43.70
2019-03-26T11:51:17.661Z,44.30
2019-03-26T11:54:21.905Z,45.00
2019-03-26T11:57:26.180Z,47.20
2019-03-26T12:00:34.048Z,49.30
2019-03-26T12:03:38.315Z,50.60
2019-03-26T12:06:42.592Z,53.50
2019-03-26T12:09:47.059Z,54.70
2019-03-26T12:12:51.331Z,56.20
2019-03-26T12:15:55.550Z,56.60
2019-03-26T12:18:59.806Z,57.70
2019-03-26T12:22:04.159Z,57.20
2019-03-26T12:25:08.806Z,58.20
2019-03-26T12:28:13.013Z,60.50
2019-03-26T12:31:17.270Z,60.90
2019-03-26T12:34:21.497Z,60.80
2019-03-26T12:37:25.817Z,62.20
2019-03-26T12:40:30.146Z,63.10
2019-03-26T12:43:34.342Z,64.20
2019-03-26T12:46:38.571Z,64.90
2019-03-26T12:49:43.101Z,65.50
2019-03-26T12:52:47.766Z,61.40
2019-03-26T12:55:52.014Z,57.90
2019-03-26T12:58:56.248Z,58.40
2019-03-26T13:02:00.526Z,54.60
2019-03-26T13:05:04.940Z,54.90
2019-03-26T13:08:09.189Z,57.90
2019-03-26T13:11:16.799Z,56.30
2019-03-26T13:14:19.746Z,56.30
2019-03-26T13:17:23.988Z,56.30
2019-03-26T13:20:28.242Z,56.70
2019-03-26T13:23:32.479Z,57.40
2019-03-26T13:26:36.891Z,55.80
2019-03-26T13:29:41.114Z,55.50
2019-03-26T13:32:45.382Z,53.10
2019-03-26T13:35:49.637Z,55.90
2019-03-26T13:38:54.123Z,53.80
2019-03-26T13:41:58.400Z,53.70
2019-03-26T13:45:02.649Z,53.10
2019-03-26T13:48:07.039Z,50.90
2019-03-26T13:51:11.287Z,50.80
2019-03-26T13:54:15.461Z,50.80
2019-03-26T13:57:19.803Z,50.10
2019-03-26T14:00:34.213Z,50.80
2019-03-26T14:03:38.516Z,52.90
2019-03-26T14:06:42.802Z,53.70
2019-03-26T14:09:47.234Z,55.30
2019-03-26T14:12:51.566Z,55.20
2019-03-26T14:15:55.766Z,49.50
2019-03-26T14:19:00.041Z,49.10
2019-03-26T14:22:04.402Z,48.70
2019-03-26T14:25:08.824Z,49.90
2019-03-26T14:28:13.901Z,50.10
2019-03-26T14:31:18.347Z,49.70
2019-03-26T14:34:22.830Z,50.40
2019-03-26T14:37:27.132Z,48.70
2019-03-26T14:40:31.306Z,49.60
2019-03-26T14:43:35.543Z,49.20
2019-03-26T14:46:39.850Z,48.10
2019-03-26T14:49:44.138Z,49.20
2019-03-26T14:52:48.395Z,48.30
2019-03-26T14:55:52.789Z,48.90
2019-03-26T14:58:57.629Z,49.40
2019-03-26T15:02:01.896Z,48.00
2019-03-26T15:05:06.646Z,46.80
2019-03-26T15:08:11.129Z,46.70
2019-03-26T15:11:15.350Z,46.80
2019-03-26T15:14:19.609Z,46.70
2019-03-26T15:17:24.153Z,46.20
2019-03-26T15:20:28.390Z,44.00
2019-03-26T15:23:32.609Z,43.10
2019-03-26T15:26:36.811Z,40.50
2019-03-26T15:29:41.076Z,38.90
2019-03-26T15:32:45.405Z,39.00
2019-03-26T15:35:49.622Z,38.70
2019-03-26T15:38:53.907Z,37.50
2019-03-26T15:41:58.151Z,36.70
2019-03-26T15:45:02.392Z,32.30
2019-03-26T15:48:06.894Z,33.00
2019-03-26T15:51:11.165Z,33.00
2019-03-26T15:54:15.465Z,32.10
2019-03-26T15:57:19.732Z,32.30
2019-03-26T16:00:28.886Z,31.90
2019-03-26T16:03:33.202Z,32.20
2019-03-26T16:06:37.416Z,31.10
2019-03-26T16:09:41.651Z,31.80
2019-03-26T16:12:45.886Z,32.30
2019-03-26T16:15:51.793Z,32.70
2019-03-26T16:18:56.582Z,33.50
2019-03-26T16:22:00.775Z,33.30
2019-03-26T16:25:05.938Z,34.00
2019-03-26T16:28:10.150Z,33.70
2019-03-26T16:31:14.419Z,34.40
2019-03-26T16:34:18.711Z,35.30
2019-03-26T16:37:23.151Z,35.20
2019-03-26T16:40:27.380Z,34.20
2019-03-26T16:43:31.579Z,35.60
2019-03-26T16:46:36.479Z,35.20
2019-03-26T16:49:40.904Z,35.00
2019-03-26T16:52:45.129Z,34.70
2019-03-26T16:55:49.387Z,36.30
2019-03-26T16:58:53.586Z,35.90
2019-03-26T17:01:57.838Z,36.20
2019-03-26T17:05:03.098Z,36.40
2019-03-26T17:08:07.449Z,37.50
2019-03-26T17:11:11.722Z,37.40
2019-03-26T17:14:16.040Z,37.50
2019-03-26T17:17:20.254Z,38.20
2019-03-26T17:20:24.575Z,38.60
2019-03-26T17:23:28.941Z,38.70
2019-03-26T17:26:33.186Z,39.20
2019-03-26T17:29:37.419Z,39.80
2019-03-26T17:32:41.706Z,39.90
2019-03-26T17:35:46.141Z,40.80
2019-03-26T17:38:51.357Z,41.00
2019-03-26T17:41:55.626Z,41.30
2019-03-26T17:44:59.882Z,40.40
2019-03-26T17:48:04.158Z,41.20
2019-03-26T17:51:08.401Z,42.20
2019-03-26T17:54:12.656Z,42.20
2019-03-26T17:57:16.867Z,43.10
2019-03-26T18:00:44.830Z,43.00
2019-03-26T18:03:49.422Z,43.50
2019-03-26T18:06:54.269Z,42.60
2019-03-26T18:09:58.533Z,42.90
2019-03-26T18:13:02.757Z,42.60
2019-03-26T18:16:07.038Z,42.70
2019-03-26T18:19:11.303Z,43.30
2019-03-26T18:22:15.509Z,43.70
2019-03-26T18:25:19.782Z,43.50
2019-03-26T18:28:23.965Z,43.60
2019-03-26T18:31:28.214Z,43.60
2019-03-26T18:34:32.497Z,43.70
2019-03-26T18:37:36.944Z,43.40
2019-03-26T18:40:41.206Z,44.20
2019-03-26T18:43:45.515Z,44.10
2019-03-26T18:46:49.876Z,44.30
2019-03-26T18:49:54.191Z,44.50
2019-03-26T18:52:58.452Z,43.80
2019-03-26T18:56:03.002Z,44.10
2019-03-26T18:59:07.582Z,44.00
2019-03-26T19:02:12.121Z,44.10
2019-03-26T19:05:16.430Z,44.20
2019-03-26T19:08:20.734Z,44.30
2019-03-26T19:11:25.030Z,43.30
2019-03-26T19:14:29.250Z,43.50
2019-03-26T19:17:33.522Z,43.80
2019-03-26T19:20:37.781Z,43.30
2019-03-26T19:23:43.382Z,44.10
2019-03-26T19:26:47.769Z,43.60
2019-03-26T19:29:52.102Z,43.60
2019-03-26T19:32:57.875Z,44.00
2019-03-26T19:36:02.216Z,44.30
2019-03-26T19:39:07.943Z,44.00
2019-03-26T19:42:12.897Z,45.10
2019-03-26T19:45:17.421Z,45.40
2019-03-26T19:48:21.653Z,45.50
2019-03-26T19:51:25.921Z,45.00
2019-03-26T19:54:30.130Z,46.10
2019-03-26T19:57:34.416Z,46.10
2019-03-26T20:00:39.090Z,46.10
2019-03-26T20:03:43.346Z,45.80
2019-03-26T20:06:47.598Z,46.20
2019-03-26T20:09:51.819Z,45.50
2019-03-26T20:12:56.244Z,45.40
2019-03-26T20:16:00.598Z,45.10
2019-03-26T20:19:04.866Z,45.20
2019-03-26T20:22:09.149Z,44.70
2019-03-26T20:25:14.582Z,45.10
2019-03-26T20:28:19.753Z,45.80
2019-03-26T20:31:24.566Z,45.60
2019-03-26T20:34:28.980Z,45.90
2019-03-26T20:37:33.281Z,46.00
2019-03-26T20:40:37.598Z,46.30
2019-03-26T20:43:41.844Z,46.70
2019-03-26T20:46:46.338Z,45.70
2019-03-26T20:49:50.591Z,45.80
2019-03-26T20:52:55.233Z,46.00
2019-03-26T20:55:59.457Z,46.40
2019-03-26T20:59:04.397Z,46.20
2019-03-26T21:02:08.625Z,46.40
2019-03-26T21:05:12.965Z,46.90
2019-03-26T21:08:17.200Z,46.70
2019-03-26T21:11:21.680Z,47.40
2019-03-26T21:14:26.069Z,47.10
2019-03-26T21:17:30.660Z,47.70
2019-03-26T21:20:35.787Z,48.50
2019-03-26T21:23:40.095Z,48.80
2019-03-26T21:26:44.427Z,49.30
2019-03-26T21:29:48.749Z,49.60
2019-03-26T21:32:52.964Z,49.60
2019-03-26T21:35:57.182Z,50.10
2019-03-26T21:39:01.484Z,50.60
2019-03-26T21:42:05.678Z,51.30
2019-03-26T21:45:10.721Z,51.80
2019-03-26T21:48:14.969Z,51.90
2019-03-26T21:51:19.886Z,51.50
2019-03-26T21:54:24.416Z,51.40
2019-03-26T21:57:28.590Z,52.10
2019-03-26T22:00:33.134Z,52.20
2019-03-26T22:03:37.526Z,52.10
2019-03-26T22:06:41.993Z,54.10
2019-03-26T22:09:46.242Z,54.30
2019-03-26T22:12:50.413Z,54.90
2019-03-26T22:15:54.889Z,56.00
2019-03-26T22:18:59.056Z,55.40
2019-03-26T22:22:03.284Z,56.20
2019-03-26T22:25:08.067Z,56.20
2019-03-26T22:28:12.290Z,56.40
2019-03-26T22:31:16.520Z,56.10
2019-03-26T22:34:20.728Z,56.90
2019-03-26T22:37:26.585Z,58.10
2019-03-26T22:40:30.834Z,58.00
2019-03-26T22:43:35.078Z,58.00
2019-03-26T22:46:39.517Z,57.70
2019-03-26T22:49:44.050Z,57.80
2019-03-26T22:52:48.737Z,58.00
2019-03-26T22:55:52.966Z,57.90
2019-03-26T22:58:57.275Z,58.20
2019-03-26T23:02:01.621Z,57.70
2019-03-26T23:05:06.613Z,58.30
2019-03-26T23:08:10.866Z,59.00
2019-03-26T23:11:15.159Z,59.60
2019-03-26T23:14:19.417Z,61.10
2019-03-26T23:17:23.859Z,61.40
2019-03-26T23:20:28.042Z,62.00
2019-03-26T23:23:32.322Z,61.70
2019-03-26T23:26:36.586Z,62.10
2019-03-26T23:29:40.797Z,62.60
2019-03-26T23:32:45.062Z,62.60
2019-03-26T23:35:49.260Z,62.50
2019-03-26T23:38:53.504Z,63.10
2019-03-26T23:41:57.713Z,63.00
2019-03-26T23:45:01.942Z,63.00
2019-03-26T23:48:06.208Z,64.60
2019-03-26T23:51:10.476Z,65.00
2019-03-26T23:54:14.768Z,63.90
2019-03-26T23:57:18.953Z,64.30
